sensor_id;sensor_type;location;lat;lon;timestamp;P1;durP1;ratioP1;P2;durP2;ratioP2
78875;SDS011;68253;52.506;5.486;2023-03-11T00:02:17;2.80;;;0.50;;
78875;SDS011;68253;52.506;5.486;2023-03-11T00:04:43;0.95;;;0.30;;
78875;SDS011;68253;52.506;5.486;2023-03-11T00:07:10;1.63;;;0.20;;
78875;SDS011;68253;52.506;5.486;2023-03-11T00:09:36;2.50;;;0.40;;
78875;SDS011;68253;52.506;5.486;2023-03-11T00:12:03;2.17;;;0.47;;
78875;SDS011;68253;52.506;5.486;2023-03-11T00:14:29;2.08;;;0.30;;
78875;SDS011;68253;52.506;5.486;2023-03-11T00:16:55;2.80;;;0.50;;
78875;SDS011;68253;52.506;5.486;2023-03-11T00:19:23;2.67;;;0.40;;
78875;SDS011;68253;52.506;5.486;2023-03-11T00:21:49;2.08;;;0.40;;
78875;SDS011;68253;52.506;5.486;2023-03-11T00:24:15;1.38;;;0.30;;
78875;SDS011;68253;52.506;5.486;2023-03-11T00:26:41;1.17;;;0.22;;
78875;SDS011;68253;52.506;5.486;2023-03-11T00:29:07;1.33;;;0.30;;
78875;SDS011;68253;52.506;5.486;2023-03-11T00:31:33;2.08;;;0.35;;
78875;SDS011;68253;52.506;5.486;2023-03-11T00:33:59;2.65;;;0.40;;
78875;SDS011;68253;52.506;5.486;2023-03-11T00:36:27;3.22;;;0.52;;
78875;SDS011;68253;52.506;5.486;2023-03-11T00:39:01;2.25;;;0.40;;
78875;SDS011;68253;52.506;5.486;2023-03-11T00:41:33;1.00;;;0.30;;
78875;SDS011;68253;52.506;5.486;2023-03-11T00:44:00;2.28;;;0.47;;
78875;SDS011;68253;52.506;5.486;2023-03-11T00:46:26;2.67;;;0.60;;
78875;SDS011;68253;52.506;5.486;2023-03-11T00:48:54;1.70;;;0.30;;
78875;SDS011;68253;52.506;5.486;2023-03-11T00:51:20;1.85;;;0.32;;
78875;SDS011;68253;52.506;5.486;2023-03-11T00:53:46;2.72;;;0.50;;
78875;SDS011;68253;52.506;5.486;2023-03-11T00:56:13;1.65;;;0.60;;
78875;SDS011;68253;52.506;5.486;2023-03-11T00:58:41;1.08;;;0.28;;
78875;SDS011;68253;52.506;5.486;2023-03-11T01:01:09;1.20;;;0.22;;
78875;SDS011;68253;52.506;5.486;2023-03-11T01:03:41;1.90;;;0.40;;
78875;SDS011;68253;52.506;5.486;2023-03-11T01:06:09;2.05;;;0.32;;
78875;SDS011;68253;52.506;5.486;2023-03-11T01:08:36;2.00;;;0.45;;
78875;SDS011;68253;52.506;5.486;2023-03-11T01:11:03;1.27;;;0.30;;
78875;SDS011;68253;52.506;5.486;2023-03-11T01:13:30;1.48;;;0.35;;
78875;SDS011;68253;52.506;5.486;2023-03-11T01:15:57;3.35;;;0.50;;
78875;SDS011;68253;52.506;5.486;2023-03-11T01:18:24;2.03;;;0.45;;
78875;SDS011;68253;52.506;5.486;2023-03-11T01:20:52;2.55;;;0.35;;
78875;SDS011;68253;52.506;5.486;2023-03-11T01:23:19;1.80;;;0.50;;
78875;SDS011;68253;52.506;5.486;2023-03-11T01:25:46;1.70;;;0.50;;
78875;SDS011;68253;52.506;5.486;2023-03-11T01:28:13;2.80;;;0.45;;
78875;SDS011;68253;52.506;5.486;2023-03-11T01:30:39;1.13;;;0.40;;
78875;SDS011;68253;52.506;5.486;2023-03-11T01:33:06;1.88;;;0.40;;
78875;SDS011;68253;52.506;5.486;2023-03-11T01:35:38;0.93;;;0.22;;
78875;SDS011;68253;52.506;5.486;2023-03-11T01:38:06;1.80;;;0.40;;
78875;SDS011;68253;52.506;5.486;2023-03-11T01:40:34;1.83;;;0.35;;
78875;SDS011;68253;52.506;5.486;2023-03-11T01:48:37;2.13;;;0.35;;
78875;SDS011;68253;52.506;5.486;2023-03-11T01:51:05;2.67;;;0.50;;
78875;SDS011;68253;52.506;5.486;2023-03-11T01:53:31;1.27;;;0.30;;
78875;SDS011;68253;52.506;5.486;2023-03-11T01:55:59;1.73;;;0.50;;
78875;SDS011;68253;52.506;5.486;2023-03-11T01:58:27;1.55;;;0.35;;
78875;SDS011;68253;52.506;5.486;2023-03-11T02:00:59;2.15;;;0.50;;
78875;SDS011;68253;52.506;5.486;2023-03-11T02:03:29;1.58;;;0.50;;
78875;SDS011;68253;52.506;5.486;2023-03-11T02:05:59;2.58;;;0.50;;
78875;SDS011;68253;52.506;5.486;2023-03-11T02:10:55;1.42;;;0.40;;
78875;SDS011;68253;52.506;5.486;2023-03-11T02:13:22;1.55;;;0.40;;
78875;SDS011;68253;52.506;5.486;2023-03-11T02:15:48;1.98;;;0.47;;
78875;SDS011;68253;52.506;5.486;2023-03-11T02:18:14;1.17;;;0.32;;
78875;SDS011;68253;52.506;5.486;2023-03-11T02:20:52;1.50;;;0.30;;
78875;SDS011;68253;52.506;5.486;2023-03-11T02:23:23;1.85;;;0.40;;
78875;SDS011;68253;52.506;5.486;2023-03-11T02:26:09;0.70;;;0.30;;
78875;SDS011;68253;52.506;5.486;2023-03-11T02:28:41;3.30;;;0.52;;
78875;SDS011;68253;52.506;5.486;2023-03-11T02:31:08;1.45;;;0.40;;
78875;SDS011;68253;52.506;5.486;2023-03-11T02:33:35;2.20;;;0.47;;
78875;SDS011;68253;52.506;5.486;2023-03-11T02:36:02;2.65;;;0.43;;
78875;SDS011;68253;52.506;5.486;2023-03-11T02:38:29;1.45;;;0.40;;
78875;SDS011;68253;52.506;5.486;2023-03-11T02:40:56;1.88;;;0.43;;
78875;SDS011;68253;52.506;5.486;2023-03-11T02:43:33;2.63;;;0.45;;
78875;SDS011;68253;52.506;5.486;2023-03-11T02:46:02;1.63;;;0.43;;
78875;SDS011;68253;52.506;5.486;2023-03-11T02:48:31;2.17;;;0.40;;
78875;SDS011;68253;52.506;5.486;2023-03-11T02:50:59;2.50;;;0.60;;
78875;SDS011;68253;52.506;5.486;2023-03-11T02:53:26;2.20;;;0.40;;
78875;SDS011;68253;52.506;5.486;2023-03-11T02:55:55;1.00;;;0.22;;
78875;SDS011;68253;52.506;5.486;2023-03-11T02:58:21;2.92;;;0.40;;
78875;SDS011;68253;52.506;5.486;2023-03-11T03:00:47;2.17;;;0.32;;
78875;SDS011;68253;52.506;5.486;2023-03-11T03:03:13;1.77;;;0.50;;
78875;SDS011;68253;52.506;5.486;2023-03-11T03:05:40;1.98;;;0.40;;
78875;SDS011;68253;52.506;5.486;2023-03-11T03:08:07;2.88;;;0.40;;
78875;SDS011;68253;52.506;5.486;2023-03-11T03:10:33;1.45;;;0.30;;
78875;SDS011;68253;52.506;5.486;2023-03-11T03:12:59;1.98;;;0.30;;
78875;SDS011;68253;52.506;5.486;2023-03-11T03:15:25;1.83;;;0.40;;
78875;SDS011;68253;52.506;5.486;2023-03-11T03:17:52;1.38;;;0.30;;
78875;SDS011;68253;52.506;5.486;2023-03-11T03:20:18;1.13;;;0.40;;
78875;SDS011;68253;52.506;5.486;2023-03-11T03:22:49;0.73;;;0.32;;
78875;SDS011;68253;52.506;5.486;2023-03-11T03:25:17;2.80;;;0.63;;
78875;SDS011;68253;52.506;5.486;2023-03-11T03:27:44;2.63;;;0.30;;
78875;SDS011;68253;52.506;5.486;2023-03-11T03:30:11;1.02;;;0.30;;
78875;SDS011;68253;52.506;5.486;2023-03-11T03:32:38;2.45;;;0.40;;
78875;SDS011;68253;52.506;5.486;2023-03-11T03:35:08;1.85;;;0.40;;
78875;SDS011;68253;52.506;5.486;2023-03-11T03:37:55;0.93;;;0.30;;
78875;SDS011;68253;52.506;5.486;2023-03-11T03:40:22;2.75;;;0.40;;
78875;SDS011;68253;52.506;5.486;2023-03-11T03:42:49;1.52;;;0.28;;
78875;SDS011;68253;52.506;5.486;2023-03-11T03:45:15;1.48;;;0.40;;
78875;SDS011;68253;52.506;5.486;2023-03-11T03:47:42;1.50;;;0.30;;
78875;SDS011;68253;52.506;5.486;2023-03-11T03:50:09;1.90;;;0.40;;
78875;SDS011;68253;52.506;5.486;2023-03-11T03:52:39;1.60;;;0.47;;
78875;SDS011;68253;52.506;5.486;2023-03-11T03:55:05;1.45;;;0.40;;
78875;SDS011;68253;52.506;5.486;2023-03-11T03:57:32;0.68;;;0.32;;
78875;SDS011;68253;52.506;5.486;2023-03-11T03:59:58;1.42;;;0.40;;
78875;SDS011;68253;52.506;5.486;2023-03-11T04:02:25;1.25;;;0.40;;
78875;SDS011;68253;52.506;5.486;2023-03-11T04:04:51;1.77;;;0.40;;
78875;SDS011;68253;52.506;5.486;2023-03-11T04:07:17;0.93;;;0.30;;
78875;SDS011;68253;52.506;5.486;2023-03-11T04:09:43;1.27;;;0.30;;
78875;SDS011;68253;52.506;5.486;2023-03-11T04:12:14;1.20;;;0.30;;
78875;SDS011;68253;52.506;5.486;2023-03-11T04:14:42;1.98;;;0.40;;
78875;SDS011;68253;52.506;5.486;2023-03-11T04:17:12;2.20;;;0.30;;
78875;SDS011;68253;52.506;5.486;2023-03-11T04:19:39;1.83;;;0.30;;
78875;SDS011;68253;52.506;5.486;2023-03-11T04:22:09;1.20;;;0.30;;
78875;SDS011;68253;52.506;5.486;2023-03-11T04:24:35;1.02;;;0.28;;
78875;SDS011;68253;52.506;5.486;2023-03-11T04:27:02;2.70;;;0.35;;
78875;SDS011;68253;52.506;5.486;2023-03-11T04:29:30;1.48;;;0.30;;
78875;SDS011;68253;52.506;5.486;2023-03-11T04:31:56;1.55;;;0.35;;
78875;SDS011;68253;52.506;5.486;2023-03-11T04:34:22;2.20;;;0.40;;
78875;SDS011;68253;52.506;5.486;2023-03-11T04:36:52;0.88;;;0.20;;
78875;SDS011;68253;52.506;5.486;2023-03-11T04:39:27;1.90;;;0.35;;
78875;SDS011;68253;52.506;5.486;2023-03-11T04:41:54;0.95;;;0.35;;
78875;SDS011;68253;52.506;5.486;2023-03-11T04:44:23;1.20;;;0.28;;
78875;SDS011;68253;52.506;5.486;2023-03-11T04:46:49;1.88;;;0.40;;
78875;SDS011;68253;52.506;5.486;2023-03-11T04:49:16;1.25;;;0.50;;
78875;SDS011;68253;52.506;5.486;2023-03-11T04:51:42;1.02;;;0.30;;
78875;SDS011;68253;52.506;5.486;2023-03-11T04:54:10;1.73;;;0.38;;
78875;SDS011;68253;52.506;5.486;2023-03-11T04:56:36;1.23;;;0.30;;
78875;SDS011;68253;52.506;5.486;2023-03-11T04:59:04;1.17;;;0.30;;
78875;SDS011;68253;52.506;5.486;2023-03-11T05:01:32;0.90;;;0.30;;
78875;SDS011;68253;52.506;5.486;2023-03-11T05:04:01;2.10;;;0.30;;
78875;SDS011;68253;52.506;5.486;2023-03-11T05:06:27;1.45;;;0.20;;
78875;SDS011;68253;52.506;5.486;2023-03-11T05:08:53;2.75;;;0.50;;
78875;SDS011;68253;52.506;5.486;2023-03-11T05:11:20;1.08;;;0.22;;
78875;SDS011;68253;52.506;5.486;2023-03-11T05:13:47;1.75;;;0.30;;
78875;SDS011;68253;52.506;5.486;2023-03-11T05:16:13;1.13;;;0.20;;
78875;SDS011;68253;52.506;5.486;2023-03-11T05:18:39;1.95;;;0.35;;
78875;SDS011;68253;52.506;5.486;2023-03-11T05:21:05;0.60;;;0.20;;
78875;SDS011;68253;52.506;5.486;2023-03-11T05:23:33;1.25;;;0.20;;
78875;SDS011;68253;52.506;5.486;2023-03-11T05:26:00;1.13;;;0.17;;
78875;SDS011;68253;52.506;5.486;2023-03-11T05:28:28;1.58;;;0.20;;
78875;SDS011;68253;52.506;5.486;2023-03-11T05:30:54;1.00;;;0.30;;
78875;SDS011;68253;52.506;5.486;2023-03-11T05:33:21;1.73;;;0.28;;
78875;SDS011;68253;52.506;5.486;2023-03-11T05:35:48;0.43;;;0.20;;
78875;SDS011;68253;52.506;5.486;2023-03-11T05:38:18;0.50;;;0.20;;
78875;SDS011;68253;52.506;5.486;2023-03-11T05:40:44;1.25;;;0.40;;
78875;SDS011;68253;52.506;5.486;2023-03-11T05:43:10;1.38;;;0.30;;
78875;SDS011;68253;52.506;5.486;2023-03-11T05:48:05;1.40;;;0.20;;
78875;SDS011;68253;52.506;5.486;2023-03-11T05:50:33;1.15;;;0.20;;
78875;SDS011;68253;52.506;5.486;2023-03-11T05:52:59;0.95;;;0.30;;
78875;SDS011;68253;52.506;5.486;2023-03-11T05:55:28;0.93;;;0.25;;
78875;SDS011;68253;52.506;5.486;2023-03-11T05:57:54;1.35;;;0.30;;
78875;SDS011;68253;52.506;5.486;2023-03-11T06:00:21;1.02;;;0.30;;
78875;SDS011;68253;52.506;5.486;2023-03-11T06:02:50;1.45;;;0.30;;
78875;SDS011;68253;52.506;5.486;2023-03-11T06:05:18;1.25;;;0.22;;
78875;SDS011;68253;52.506;5.486;2023-03-11T06:07:46;1.42;;;0.40;;
78875;SDS011;68253;52.506;5.486;2023-03-11T06:10:12;1.33;;;0.20;;
78875;SDS011;68253;52.506;5.486;2023-03-11T06:12:39;1.15;;;0.20;;
78875;SDS011;68253;52.506;5.486;2023-03-11T06:15:20;1.38;;;0.50;;
78875;SDS011;68253;52.506;5.486;2023-03-11T06:17:47;1.00;;;0.30;;
78875;SDS011;68253;52.506;5.486;2023-03-11T06:20:13;1.45;;;0.30;;
78875;SDS011;68253;52.506;5.486;2023-03-11T06:22:40;1.80;;;0.40;;
78875;SDS011;68253;52.506;5.486;2023-03-11T06:25:07;1.08;;;0.30;;
78875;SDS011;68253;52.506;5.486;2023-03-11T06:27:35;0.98;;;0.30;;
78875;SDS011;68253;52.506;5.486;2023-03-11T06:30:02;1.65;;;0.40;;
78875;SDS011;68253;52.506;5.486;2023-03-11T06:32:33;2.10;;;0.40;;
78875;SDS011;68253;52.506;5.486;2023-03-11T06:34:59;1.25;;;0.38;;
78875;SDS011;68253;52.506;5.486;2023-03-11T06:37:26;1.20;;;0.40;;
78875;SDS011;68253;52.506;5.486;2023-03-11T06:39:54;2.05;;;0.55;;
78875;SDS011;68253;52.506;5.486;2023-03-11T06:42:23;2.28;;;0.60;;
78875;SDS011;68253;52.506;5.486;2023-03-11T06:44:50;1.88;;;0.43;;
78875;SDS011;68253;52.506;5.486;2023-03-11T06:47:16;1.77;;;0.40;;
78875;SDS011;68253;52.506;5.486;2023-03-11T06:49:43;1.58;;;0.50;;
78875;SDS011;68253;52.506;5.486;2023-03-11T06:52:09;1.45;;;0.30;;
78875;SDS011;68253;52.506;5.486;2023-03-11T06:54:35;2.35;;;0.55;;
78875;SDS011;68253;52.506;5.486;2023-03-11T06:57:02;2.67;;;0.40;;
78875;SDS011;68253;52.506;5.486;2023-03-11T06:59:32;1.98;;;0.50;;
78875;SDS011;68253;52.506;5.486;2023-03-11T07:01:59;1.30;;;0.50;;
78875;SDS011;68253;52.506;5.486;2023-03-11T07:04:26;2.13;;;0.70;;
78875;SDS011;68253;52.506;5.486;2023-03-11T07:06:53;1.40;;;0.43;;
78875;SDS011;68253;52.506;5.486;2023-03-11T07:09:20;2.15;;;0.73;;
78875;SDS011;68253;52.506;5.486;2023-03-11T07:11:47;1.92;;;0.47;;
78875;SDS011;68253;52.506;5.486;2023-03-11T07:14:21;1.95;;;0.47;;
78875;SDS011;68253;52.506;5.486;2023-03-11T07:16:51;2.15;;;0.50;;
78875;SDS011;68253;52.506;5.486;2023-03-11T07:19:25;2.03;;;0.60;;
78875;SDS011;68253;52.506;5.486;2023-03-11T07:21:51;1.38;;;0.43;;
78875;SDS011;68253;52.506;5.486;2023-03-11T07:24:17;2.42;;;0.45;;
78875;SDS011;68253;52.506;5.486;2023-03-11T07:26:43;1.67;;;0.50;;
78875;SDS011;68253;52.506;5.486;2023-03-11T07:29:10;2.22;;;0.43;;
78875;SDS011;68253;52.506;5.486;2023-03-11T07:31:36;1.88;;;0.60;;
78875;SDS011;68253;52.506;5.486;2023-03-11T07:34:03;1.52;;;0.50;;
78875;SDS011;68253;52.506;5.486;2023-03-11T07:36:35;1.33;;;0.40;;
78875;SDS011;68253;52.506;5.486;2023-03-11T07:39:04;1.27;;;0.50;;
78875;SDS011;68253;52.506;5.486;2023-03-11T07:41:31;1.60;;;0.50;;
78875;SDS011;68253;52.506;5.486;2023-03-11T07:44:00;1.85;;;0.60;;
78875;SDS011;68253;52.506;5.486;2023-03-11T07:46:27;3.50;;;0.60;;
78875;SDS011;68253;52.506;5.486;2023-03-11T07:48:54;3.25;;;0.60;;
78875;SDS011;68253;52.506;5.486;2023-03-11T07:51:22;3.58;;;0.70;;
78875;SDS011;68253;52.506;5.486;2023-03-11T07:53:51;1.83;;;0.57;;
78875;SDS011;68253;52.506;5.486;2023-03-11T07:56:20;2.50;;;0.50;;
78875;SDS011;68253;52.506;5.486;2023-03-11T07:58:48;2.58;;;0.60;;
78875;SDS011;68253;52.506;5.486;2023-03-11T08:01:16;2.28;;;0.60;;
78875;SDS011;68253;52.506;5.486;2023-03-11T08:03:47;2.03;;;0.60;;
78875;SDS011;68253;52.506;5.486;2023-03-11T08:06:19;2.83;;;0.60;;
78875;SDS011;68253;52.506;5.486;2023-03-11T08:08:48;2.28;;;0.50;;
78875;SDS011;68253;52.506;5.486;2023-03-11T08:11:14;3.40;;;0.55;;
78875;SDS011;68253;52.506;5.486;2023-03-11T08:13:42;1.67;;;0.60;;
78875;SDS011;68253;52.506;5.486;2023-03-11T08:16:10;2.50;;;0.60;;
78875;SDS011;68253;52.506;5.486;2023-03-11T08:18:38;2.72;;;0.75;;
78875;SDS011;68253;52.506;5.486;2023-03-11T08:21:05;3.42;;;0.70;;
78875;SDS011;68253;52.506;5.486;2023-03-11T08:23:33;2.00;;;0.52;;
78875;SDS011;68253;52.506;5.486;2023-03-11T08:26:03;2.70;;;0.60;;
78875;SDS011;68253;52.506;5.486;2023-03-11T08:28:30;2.50;;;0.68;;
78875;SDS011;68253;52.506;5.486;2023-03-11T08:30:56;1.55;;;0.50;;
78875;SDS011;68253;52.506;5.486;2023-03-11T08:33:23;3.58;;;0.73;;
78875;SDS011;68253;52.506;5.486;2023-03-11T08:35:49;3.20;;;0.80;;
78875;SDS011;68253;52.506;5.486;2023-03-11T08:38:15;3.30;;;0.70;;
78875;SDS011;68253;52.506;5.486;2023-03-11T08:40:41;3.47;;;0.70;;
78875;SDS011;68253;52.506;5.486;2023-03-11T08:43:09;2.40;;;0.70;;
78875;SDS011;68253;52.506;5.486;2023-03-11T08:45:40;3.13;;;0.80;;
78875;SDS011;68253;52.506;5.486;2023-03-11T08:48:08;3.47;;;0.65;;
78875;SDS011;68253;52.506;5.486;2023-03-11T08:50:35;2.50;;;0.70;;
78875;SDS011;68253;52.506;5.486;2023-03-11T08:53:03;2.70;;;0.57;;
78875;SDS011;68253;52.506;5.486;2023-03-11T08:55:30;2.88;;;0.70;;
78875;SDS011;68253;52.506;5.486;2023-03-11T08:57:56;2.53;;;0.65;;
78875;SDS011;68253;52.506;5.486;2023-03-11T09:00:22;2.40;;;0.57;;
78875;SDS011;68253;52.506;5.486;2023-03-11T09:02:48;2.72;;;0.73;;
78875;SDS011;68253;52.506;5.486;2023-03-11T09:05:14;3.05;;;0.70;;
78875;SDS011;68253;52.506;5.486;2023-03-11T09:07:40;2.80;;;0.55;;
78875;SDS011;68253;52.506;5.486;2023-03-11T09:10:07;3.63;;;0.70;;
78875;SDS011;68253;52.506;5.486;2023-03-11T09:12:36;2.42;;;0.70;;
78875;SDS011;68253;52.506;5.486;2023-03-11T09:15:02;4.85;;;0.90;;
78875;SDS011;68253;52.506;5.486;2023-03-11T09:17:28;3.47;;;0.80;;
78875;SDS011;68253;52.506;5.486;2023-03-11T09:19:54;4.72;;;0.80;;
78875;SDS011;68253;52.506;5.486;2023-03-11T09:22:20;3.65;;;0.80;;
78875;SDS011;68253;52.506;5.486;2023-03-11T09:24:46;4.50;;;0.90;;
78875;SDS011;68253;52.506;5.486;2023-03-11T09:27:13;4.72;;;0.85;;
78875;SDS011;68253;52.506;5.486;2023-03-11T09:29:40;3.85;;;1.17;;
78875;SDS011;68253;52.506;5.486;2023-03-11T09:32:07;3.00;;;0.70;;
78875;SDS011;68253;52.506;5.486;2023-03-11T09:34:36;3.50;;;1.10;;
78875;SDS011;68253;52.506;5.486;2023-03-11T09:37:03;3.92;;;0.73;;
78875;SDS011;68253;52.506;5.486;2023-03-11T09:39:29;4.03;;;0.80;;
78875;SDS011;68253;52.506;5.486;2023-03-11T09:41:56;3.55;;;0.80;;
78875;SDS011;68253;52.506;5.486;2023-03-11T09:44:30;3.35;;;0.80;;
78875;SDS011;68253;52.506;5.486;2023-03-11T09:47:15;2.50;;;0.73;;
78875;SDS011;68253;52.506;5.486;2023-03-11T09:52:42;3.10;;;0.73;;
78875;SDS011;68253;52.506;5.486;2023-03-11T09:55:20;3.97;;;0.85;;
78875;SDS011;68253;52.506;5.486;2023-03-11T09:57:59;3.58;;;0.70;;
78875;SDS011;68253;52.506;5.486;2023-03-11T10:00:29;2.65;;;0.68;;
78875;SDS011;68253;52.506;5.486;2023-03-11T10:02:56;4.40;;;0.80;;
78875;SDS011;68253;52.506;5.486;2023-03-11T10:05:25;4.88;;;0.80;;
78875;SDS011;68253;52.506;5.486;2023-03-11T10:08:03;4.30;;;0.80;;
78875;SDS011;68253;52.506;5.486;2023-03-11T10:10:40;3.53;;;0.75;;
78875;SDS011;68253;52.506;5.486;2023-03-11T10:13:16;4.95;;;1.10;;
78875;SDS011;68253;52.506;5.486;2023-03-11T10:16:08;5.40;;;0.90;;
78875;SDS011;68253;52.506;5.486;2023-03-11T10:21:47;3.90;;;0.93;;
78875;SDS011;68253;52.506;5.486;2023-03-11T10:27:13;4.50;;;0.90;;
78875;SDS011;68253;52.506;5.486;2023-03-11T10:29:47;2.10;;;0.63;;
78875;SDS011;68253;52.506;5.486;2023-03-11T10:35:15;3.38;;;0.63;;
78875;SDS011;68253;52.506;5.486;2023-03-11T10:40:43;5.28;;;0.80;;
78875;SDS011;68253;52.506;5.486;2023-03-11T10:43:15;3.20;;;0.80;;
78875;SDS011;68253;52.506;5.486;2023-03-11T10:45:49;3.25;;;0.65;;
78875;SDS011;68253;52.506;5.486;2023-03-11T10:48:17;2.75;;;0.75;;
78875;SDS011;68253;52.506;5.486;2023-03-11T10:51:01;3.28;;;0.73;;
78875;SDS011;68253;52.506;5.486;2023-03-11T10:53:42;2.63;;;0.60;;
78875;SDS011;68253;52.506;5.486;2023-03-11T10:59:05;3.20;;;0.65;;
78875;SDS011;68253;52.506;5.486;2023-03-11T11:01:54;2.22;;;0.60;;
78875;SDS011;68253;52.506;5.486;2023-03-11T11:04:41;2.97;;;0.70;;
78875;SDS011;68253;52.506;5.486;2023-03-11T11:07:23;4.30;;;0.82;;
78875;SDS011;68253;52.506;5.486;2023-03-11T11:10:27;2.47;;;0.50;;
78875;SDS011;68253;52.506;5.486;2023-03-11T11:17:51;3.55;;;0.75;;
78875;SDS011;68253;52.506;5.486;2023-03-11T11:22:48;1.55;;;0.45;;
78875;SDS011;68253;52.506;5.486;2023-03-11T11:25:38;1.85;;;0.45;;
78875;SDS011;68253;52.506;5.486;2023-03-11T11:33:22;2.08;;;0.50;;
78875;SDS011;68253;52.506;5.486;2023-03-11T11:36:03;2.47;;;0.52;;
78875;SDS011;68253;52.506;5.486;2023-03-11T11:38:36;2.67;;;0.40;;
78875;SDS011;68253;52.506;5.486;2023-03-11T11:41:03;3.20;;;0.70;;
78875;SDS011;68253;52.506;5.486;2023-03-11T11:46:33;2.63;;;0.60;;
78875;SDS011;68253;52.506;5.486;2023-03-11T11:49:23;2.15;;;0.57;;
78875;SDS011;68253;52.506;5.486;2023-03-11T11:52:02;2.55;;;0.70;;
78875;SDS011;68253;52.506;5.486;2023-03-11T11:54:41;1.20;;;0.40;;
78875;SDS011;68253;52.506;5.486;2023-03-11T11:57:21;2.88;;;0.70;;
78875;SDS011;68253;52.506;5.486;2023-03-11T11:59:48;2.40;;;0.60;;
78875;SDS011;68253;52.506;5.486;2023-03-11T12:07:35;2.30;;;0.80;;
78875;SDS011;68253;52.506;5.486;2023-03-11T12:18:27;3.20;;;0.40;;
78875;SDS011;68253;52.506;5.486;2023-03-11T12:21:02;3.85;;;0.65;;
78875;SDS011;68253;52.506;5.486;2023-03-11T12:26:33;1.92;;;0.52;;
78875;SDS011;68253;52.506;5.486;2023-03-11T12:29:03;2.92;;;0.60;;
78875;SDS011;68253;52.506;5.486;2023-03-11T12:31:38;2.38;;;0.60;;
78875;SDS011;68253;52.506;5.486;2023-03-11T12:34:08;2.85;;;0.75;;
78875;SDS011;68253;52.506;5.486;2023-03-11T12:36:38;2.10;;;0.50;;
78875;SDS011;68253;52.506;5.486;2023-03-11T12:39:28;2.28;;;0.50;;
78875;SDS011;68253;52.506;5.486;2023-03-11T12:44:45;2.40;;;0.50;;
78875;SDS011;68253;52.506;5.486;2023-03-11T12:49:42;2.05;;;0.43;;
78875;SDS011;68253;52.506;5.486;2023-03-11T12:54:37;1.17;;;0.38;;
78875;SDS011;68253;52.506;5.486;2023-03-11T13:08:14;2.40;;;0.60;;
78875;SDS011;68253;52.506;5.486;2023-03-11T13:10:53;1.67;;;0.50;;
78875;SDS011;68253;52.506;5.486;2023-03-11T13:18:40;1.95;;;0.30;;
78875;SDS011;68253;52.506;5.486;2023-03-11T13:21:53;2.47;;;0.70;;
78875;SDS011;68253;52.506;5.486;2023-03-11T13:27:00;1.42;;;0.55;;
78875;SDS011;68253;52.506;5.486;2023-03-11T13:35:28;1.95;;;0.47;;
78875;SDS011;68253;52.506;5.486;2023-03-11T13:41:02;2.13;;;0.52;;
78875;SDS011;68253;52.506;5.486;2023-03-11T13:43:41;2.08;;;0.60;;
78875;SDS011;68253;52.506;5.486;2023-03-11T13:46:12;3.03;;;0.50;;
78875;SDS011;68253;52.506;5.486;2023-03-11T13:48:48;2.45;;;0.63;;
78875;SDS011;68253;52.506;5.486;2023-03-11T13:51:31;1.83;;;0.50;;
78875;SDS011;68253;52.506;5.486;2023-03-11T13:54:03;2.40;;;0.60;;
78875;SDS011;68253;52.506;5.486;2023-03-11T13:56:50;1.33;;;0.50;;
78875;SDS011;68253;52.506;5.486;2023-03-11T14:01:52;1.85;;;0.50;;
78875;SDS011;68253;52.506;5.486;2023-03-11T14:04:31;1.70;;;0.47;;
78875;SDS011;68253;52.506;5.486;2023-03-11T14:06:59;1.63;;;0.57;;
78875;SDS011;68253;52.506;5.486;2023-03-11T14:09:49;2.20;;;0.50;;
78875;SDS011;68253;52.506;5.486;2023-03-11T14:12:15;2.33;;;0.50;;
78875;SDS011;68253;52.506;5.486;2023-03-11T14:17:17;1.63;;;0.35;;
78875;SDS011;68253;52.506;5.486;2023-03-11T14:20:00;1.92;;;0.50;;
78875;SDS011;68253;52.506;5.486;2023-03-11T14:22:53;1.40;;;0.43;;
78875;SDS011;68253;52.506;5.486;2023-03-11T14:25:24;1.63;;;0.55;;
78875;SDS011;68253;52.506;5.486;2023-03-11T14:27:56;1.92;;;0.57;;
78875;SDS011;68253;52.506;5.486;2023-03-11T14:30:28;1.75;;;0.40;;
78875;SDS011;68253;52.506;5.486;2023-03-11T14:32:57;1.25;;;0.50;;
78875;SDS011;68253;52.506;5.486;2023-03-11T14:37:51;0.98;;;0.40;;
78875;SDS011;68253;52.506;5.486;2023-03-11T14:40:28;1.38;;;0.47;;
78875;SDS011;68253;52.506;5.486;2023-03-11T14:43:00;2.08;;;0.57;;
78875;SDS011;68253;52.506;5.486;2023-03-11T14:45:30;2.03;;;0.45;;
78875;SDS011;68253;52.506;5.486;2023-03-11T14:50:36;2.45;;;0.60;;
78875;SDS011;68253;52.506;5.486;2023-03-11T14:55:56;1.48;;;0.30;;
78875;SDS011;68253;52.506;5.486;2023-03-11T15:06:18;1.25;;;0.38;;
78875;SDS011;68253;52.506;5.486;2023-03-11T15:08:49;1.63;;;0.43;;
78875;SDS011;68253;52.506;5.486;2023-03-11T15:11:59;1.15;;;0.30;;
78875;SDS011;68253;52.506;5.486;2023-03-11T15:14:29;1.35;;;0.40;;
78875;SDS011;68253;52.506;5.486;2023-03-11T15:19:41;1.42;;;0.40;;
78875;SDS011;68253;52.506;5.486;2023-03-11T15:22:27;1.50;;;0.40;;
78875;SDS011;68253;52.506;5.486;2023-03-11T15:25:00;2.90;;;0.50;;
78875;SDS011;68253;52.506;5.486;2023-03-11T15:27:33;2.45;;;0.50;;
78875;SDS011;68253;52.506;5.486;2023-03-11T15:30:13;1.38;;;0.40;;
78875;SDS011;68253;52.506;5.486;2023-03-11T15:32:44;2.78;;;0.70;;
78875;SDS011;68253;52.506;5.486;2023-03-11T15:35:15;1.88;;;0.40;;
78875;SDS011;68253;52.506;5.486;2023-03-11T15:37:42;1.73;;;0.50;;
78875;SDS011;68253;52.506;5.486;2023-03-11T15:45:39;1.30;;;0.52;;
78875;SDS011;68253;52.506;5.486;2023-03-11T15:48:09;1.15;;;0.40;;
78875;SDS011;68253;52.506;5.486;2023-03-11T15:50:44;1.10;;;0.30;;
78875;SDS011;68253;52.506;5.486;2023-03-11T15:53:15;2.13;;;0.40;;
78875;SDS011;68253;52.506;5.486;2023-03-11T15:55:41;1.52;;;0.40;;
78875;SDS011;68253;52.506;5.486;2023-03-11T15:58:07;2.08;;;0.50;;
78875;SDS011;68253;52.506;5.486;2023-03-11T16:00:34;2.38;;;0.60;;
78875;SDS011;68253;52.506;5.486;2023-03-11T16:03:01;0.88;;;0.40;;
78875;SDS011;68253;52.506;5.486;2023-03-11T16:05:28;2.65;;;0.57;;
78875;SDS011;68253;52.506;5.486;2023-03-11T16:07:54;1.58;;;0.52;;
78875;SDS011;68253;52.506;5.486;2023-03-11T16:10:21;1.27;;;0.40;;
78875;SDS011;68253;52.506;5.486;2023-03-11T16:12:53;3.90;;;0.77;;
78875;SDS011;68253;52.506;5.486;2023-03-11T16:17:58;2.22;;;0.50;;
78875;SDS011;68253;52.506;5.486;2023-03-11T16:20:27;1.88;;;0.50;;
78875;SDS011;68253;52.506;5.486;2023-03-11T16:22:57;1.25;;;0.40;;
78875;SDS011;68253;52.506;5.486;2023-03-11T16:25:31;1.23;;;0.30;;
78875;SDS011;68253;52.506;5.486;2023-03-11T16:28:02;2.47;;;0.50;;
78875;SDS011;68253;52.506;5.486;2023-03-11T16:30:29;1.83;;;0.35;;
78875;SDS011;68253;52.506;5.486;2023-03-11T16:32:57;0.95;;;0.35;;
78875;SDS011;68253;52.506;5.486;2023-03-11T16:35:23;1.58;;;0.38;;
78875;SDS011;68253;52.506;5.486;2023-03-11T16:37:49;0.88;;;0.35;;
78875;SDS011;68253;52.506;5.486;2023-03-11T16:40:16;2.33;;;0.50;;
78875;SDS011;68253;52.506;5.486;2023-03-11T16:42:45;1.52;;;0.50;;
78875;SDS011;68253;52.506;5.486;2023-03-11T16:45:12;1.38;;;0.38;;
78875;SDS011;68253;52.506;5.486;2023-03-11T16:47:39;2.38;;;0.40;;
78875;SDS011;68253;52.506;5.486;2023-03-11T16:50:05;2.33;;;0.60;;
78875;SDS011;68253;52.506;5.486;2023-03-11T16:52:32;1.92;;;0.40;;
78875;SDS011;68253;52.506;5.486;2023-03-11T16:54:58;3.80;;;0.77;;
78875;SDS011;68253;52.506;5.486;2023-03-11T16:57:24;2.75;;;0.73;;
78875;SDS011;68253;52.506;5.486;2023-03-11T16:59:51;2.08;;;0.50;;
78875;SDS011;68253;52.506;5.486;2023-03-11T17:02:17;3.42;;;0.60;;
78875;SDS011;68253;52.506;5.486;2023-03-11T17:04:43;2.13;;;0.45;;
78875;SDS011;68253;52.506;5.486;2023-03-11T17:07:10;4.03;;;0.70;;
78875;SDS011;68253;52.506;5.486;2023-03-11T17:09:36;2.15;;;0.60;;
78875;SDS011;68253;52.506;5.486;2023-03-11T17:12:02;3.40;;;0.70;;